createdAt,value
2022-08-25T00:48:45.933Z,70.40
2022-08-25T01:45:38.047Z,78.10
2022-08-25T02:47:14.801Z,86.90
2022-08-25T02:54:35.746Z,88.60
2022-08-25T02:56:18.251Z,87.80
2022-08-25T02:56:50.973Z,88.50
2022-08-25T02:57:31.751Z,88.40
2022-08-25T03:07:28.152Z,89.00
2022-08-25T03:16:14.290Z,88.90
2022-08-25T03:16:31.788Z,90.40
2022-08-25T03:18:44.695Z,90.60
2022-08-25T03:20:51.075Z,91.00
2022-08-25T03:22:56.530Z,91.30
2022-08-25T03:25:24.349Z,91.50
2022-08-25T03:27:31.931Z,91.70
2022-08-25T03:29:39.010Z,91.90
2022-08-25T03:31:47.330Z,92.10
2022-08-25T03:33:55.417Z,92.30
2022-08-25T03:36:07.471Z,92.60
2022-08-25T03:38:12.779Z,92.80
2022-08-25T03:40:19.225Z,92.90
2022-08-25T03:42:25.016Z,93.00
2022-08-25T03:44:38.186Z,93.10
2022-08-25T03:46:44.214Z,93.20
2022-08-25T03:48:49.140Z,93.20
2022-08-25T03:53:31.880Z,93.20
2022-08-25T03:55:43.207Z,93.30
2022-08-25T03:57:52.750Z,93.50
2022-08-25T04:00:00.546Z,93.80
2022-08-25T04:02:08.437Z,93.80
2022-08-25T04:04:53.375Z,94.00
2022-08-25T04:07:00.961Z,94.10
2022-08-25T04:09:24.664Z,94.40
2022-08-25T04:11:46.104Z,95.10
2022-08-25T04:13:53.132Z,95.10
2022-08-25T04:15:58.453Z,95.40
2022-08-25T04:18:05.042Z,95.80
2022-08-25T04:20:11.223Z,96.10
2022-08-25T04:24:43.492Z,96.90
2022-08-25T04:26:51.352Z,97.20
2022-08-25T04:28:57.139Z,97.50
2022-08-25T04:31:02.529Z,98.10
2022-08-25T04:33:45.850Z,98.60
2022-08-25T04:35:53.927Z,98.80
2022-08-25T04:38:05.812Z,98.90
2022-08-25T04:40:13.853Z,99.10
2022-08-25T04:42:21.466Z,99.30
2022-08-25T04:44:28.654Z,99.50
2022-08-25T04:46:41.678Z,99.70
2022-08-25T04:48:52.554Z,99.90
2022-08-25T04:51:02.892Z,99.90
2022-08-25T04:53:14.544Z,99.90
2022-08-25T04:55:33.390Z,99.90
2022-08-25T04:57:38.568Z,99.90
2022-08-25T04:59:49.416Z,99.90
2022-08-25T05:01:58.131Z,99.90
2022-08-25T05:04:08.751Z,99.90
2022-08-25T05:06:18.869Z,99.90
2022-08-25T05:08:26.885Z,99.90
2022-08-25T05:10:36.955Z,99.90
2022-08-25T05:13:02.656Z,99.90
2022-08-25T05:15:28.849Z,99.90
2022-08-25T05:17:35.778Z,99.90
2022-08-25T05:19:44.741Z,99.90
2022-08-25T05:21:57.785Z,99.90
2022-08-25T05:24:20.100Z,99.90
2022-08-25T05:26:35.606Z,99.90
2022-08-25T05:28:58.789Z,99.90
2022-08-25T05:31:14.895Z,99.90
2022-08-25T05:33:20.484Z,99.90
2022-08-25T05:35:26.953Z,99.90
2022-08-25T05:37:31.839Z,99.90
2022-08-25T05:39:38.131Z,99.90
2022-08-25T05:42:17.946Z,99.90
2022-08-25T05:45:29.885Z,99.90
2022-08-25T05:47:37.691Z,99.90
2022-08-25T05:49:43.794Z,99.90
2022-08-25T05:51:54.943Z,99.70
2022-08-25T05:54:02.739Z,99.50
2022-08-25T05:56:09.664Z,99.40
2022-08-25T05:58:28.549Z,99.30
2022-08-25T06:00:38.628Z,99.00
2022-08-25T06:03:31.955Z,98.70
2022-08-25T06:08:02.360Z,97.90
2022-08-25T06:10:26.419Z,97.70
2022-08-25T06:12:33.705Z,97.40
2022-08-25T06:14:50.631Z,97.40
2022-08-25T06:16:57.907Z,97.10
2022-08-25T06:19:11.374Z,97.00
2022-08-25T06:21:19.891Z,96.60
2022-08-25T06:23:35.923Z,96.50
2022-08-25T06:25:45.072Z,96.20
2022-08-25T06:27:55.762Z,96.00
2022-08-25T06:30:07.818Z,96.00
2022-08-25T06:32:12.095Z,95.60
2022-08-25T06:34:41.996Z,95.40
2022-08-25T06:36:56.412Z,95.00
2022-08-25T06:39:06.676Z,94.60
2022-08-25T06:41:40.060Z,94.60
2022-08-25T06:44:14.439Z,94.50
2022-08-25T06:49:08.320Z,94.30
2022-08-25T06:51:14.747Z,94.00
2022-08-25T06:53:30.975Z,93.70
2022-08-25T06:55:44.299Z,93.70
2022-08-25T06:57:47.752Z,93.60
2022-08-25T07:02:48.348Z,93.20
2022-08-25T07:07:49.912Z,92.60
2022-08-25T07:09:55.981Z,92.20
2022-08-25T07:15:20.877Z,91.90
2022-08-25T07:23:33.289Z,91.80
2022-08-25T07:27:43.439Z,92.00
2022-08-25T07:29:42.598Z,91.90
2022-08-25T07:37:49.325Z,91.10
2022-08-25T07:45:41.123Z,91.20
2022-08-25T07:47:55.450Z,91.10
2022-08-25T08:09:38.121Z,90.00
2022-08-25T08:12:36.060Z,89.40
2022-08-25T08:15:10.326Z,89.50
2022-08-25T08:17:50.791Z,89.10
2022-08-25T08:20:03.930Z,89.00
2022-08-25T08:27:48.917Z,88.20
2022-08-25T08:33:16.243Z,87.40
2022-08-25T08:35:24.635Z,87.10
2022-08-25T08:37:41.471Z,86.60
2022-08-25T08:39:47.756Z,86.40
2022-08-25T08:43:19.033Z,86.10
2022-08-25T08:49:15.563Z,85.00
2022-08-25T08:54:26.457Z,83.80
2022-08-25T08:57:11.821Z,83.80
2022-08-25T08:59:30.253Z,83.50
2022-08-25T09:02:13.716Z,83.30
2022-08-25T09:05:05.550Z,82.90
2022-08-25T09:07:44.809Z,82.60
2022-08-25T09:10:17.808Z,82.30
2022-08-25T09:13:35.718Z,82.00
2022-08-25T09:16:38.142Z,81.10
2022-08-25T09:30:29.743Z,78.60
2022-08-25T09:38:30.502Z,78.00
2022-08-25T09:41:33.842Z,77.40
2022-08-25T09:43:52.048Z,76.50
2022-08-25T09:46:40.333Z,75.50
2022-08-25T09:49:33.776Z,74.50
2022-08-25T09:52:05.662Z,74.50
2022-08-25T09:55:24.279Z,74.30
2022-08-25T09:58:22.205Z,74.00
2022-08-25T10:01:34.921Z,73.30
2022-08-25T10:03:40.159Z,72.50
2022-08-25T10:06:12.947Z,72.40
2022-08-25T10:10:55.851Z,71.40
2022-08-25T10:13:22.552Z,70.30
2022-08-25T10:16:33.562Z,69.60
2022-08-25T10:19:51.814Z,67.90
2022-08-25T10:22:42.269Z,68.00
2022-08-25T10:25:38.254Z,66.20
2022-08-25T10:33:51.363Z,65.20
2022-08-25T10:36:12.266Z,65.20
2022-08-25T10:48:05.054Z,63.30
2022-08-25T10:50:37.465Z,62.20
2022-08-25T10:52:51.336Z,62.10
2022-08-25T10:55:00.766Z,61.50
2022-08-25T10:57:46.562Z,61.20
2022-08-25T11:13:36.873Z,61.40
2022-08-25T11:16:26.911Z,61.40
2022-08-25T11:19:20.983Z,61.50
2022-08-25T11:21:55.317Z,61.40
2022-08-25T11:24:29.256Z,60.80
2022-08-25T11:27:15.871Z,60.80
2022-08-25T11:29:44.391Z,60.70
2022-08-25T11:32:48.159Z,60.60
2022-08-25T11:35:34.630Z,60.70
2022-08-25T11:41:11.329Z,60.90
2022-08-25T11:47:21.718Z,61.20
2022-08-25T11:50:10.639Z,61.60
2022-08-25T11:55:51.216Z,59.20
2022-08-25T12:04:45.083Z,56.80
2022-08-25T12:07:40.506Z,56.00
2022-08-25T12:19:54.662Z,57.20
2022-08-25T12:29:18.230Z,55.50
2022-08-25T12:32:09.390Z,54.70
2022-08-25T12:41:31.099Z,51.40
2022-08-25T12:44:23.292Z,50.40
2022-08-25T12:59:26.141Z,50.30
2022-08-25T13:01:54.401Z,50.50
2022-08-25T13:04:30.687Z,50.20
2022-08-25T13:06:49.623Z,49.20
2022-08-25T13:09:43.156Z,49.90
2022-08-25T13:11:56.492Z,50.10
2022-08-25T13:14:50.238Z,50.00
2022-08-25T13:17:35.434Z,50.10
2022-08-25T13:19:48.263Z,49.70
2022-08-25T13:25:13.909Z,49.60
2022-08-25T13:27:41.484Z,50.10
2022-08-25T13:35:32.195Z,52.60
2022-08-25T13:38:16.549Z,52.90
2022-08-25T13:55:58.145Z,51.90
2022-08-25T13:58:39.294Z,50.80
2022-08-25T14:05:11.062Z,49.40
2022-08-25T14:13:44.643Z,48.20
2022-08-25T14:21:14.591Z,47.30
2022-08-25T14:26:27.135Z,47.20
2022-08-25T14:29:44.270Z,48.40
2022-08-25T14:35:17.688Z,50.00
2022-08-25T14:52:44.474Z,48.70
2022-08-25T14:58:10.017Z,48.10
2022-08-25T15:04:03.523Z,47.30
2022-08-25T15:06:42.053Z,47.20
2022-08-25T15:21:47.407Z,46.30
2022-08-25T15:43:33.997Z,50.80
2022-08-25T15:56:27.395Z,53.10
2022-08-25T17:16:59.833Z,47.60
2022-08-25T17:25:01.174Z,49.70
2022-08-25T17:36:18.266Z,52.60
2022-08-25T17:41:06.671Z,53.40
2022-08-25T17:44:05.535Z,53.80
2022-08-25T17:46:39.148Z,54.10
2022-08-25T17:49:28.821Z,54.50
2022-08-25T17:52:05.837Z,54.90
2022-08-25T17:54:34.305Z,55.00
2022-08-25T18:00:29.077Z,55.60
2022-08-25T18:08:32.341Z,56.40
2022-08-25T18:11:02.076Z,56.80
2022-08-25T18:13:07.884Z,57.10
2022-08-25T18:15:12.275Z,57.50
2022-08-25T18:17:49.215Z,57.80
2022-08-25T18:36:03.310Z,59.60
2022-08-25T18:45:12.634Z,60.00
2022-08-25T19:06:56.568Z,64.80
2022-08-25T19:16:34.439Z,66.40
2022-08-25T19:19:16.763Z,67.00
2022-08-25T19:55:54.270Z,69.40
2022-08-25T20:09:59.547Z,70.00
2022-08-25T20:29:59.646Z,70.40
2022-08-25T20:42:24.839Z,70.80
2022-08-25T20:45:24.635Z,71.00
2022-08-25T20:48:07.894Z,71.10
2022-08-25T20:57:33.401Z,71.00
2022-08-25T21:19:04.944Z,72.40
2022-08-25T21:32:11.248Z,72.80
2022-08-25T21:44:31.201Z,73.00
2022-08-25T21:46:53.773Z,73.40
2022-08-25T21:48:58.254Z,73.50
2022-08-25T21:55:29.651Z,73.70
2022-08-25T22:18:52.414Z,73.50
2022-08-25T22:28:50.683Z,73.80
2022-08-25T22:49:22.663Z,74.30
2022-08-25T22:54:18.389Z,74.50
2022-08-25T23:06:01.313Z,74.80
2022-08-25T23:08:39.114Z,75.00
2022-08-25T23:11:26.061Z,75.10
2022-08-25T23:42:13.311Z,77.00
2022-08-25T23:45:01.338Z,77.10
2022-08-25T23:47:23.670Z,77.30
2022-08-25T23:49:33.704Z,77.60
2022-08-25T23:52:17.345Z,78.00
